createdAt,value
2022-12-04T00:01:50.896Z,101650.50
2022-12-04T00:03:53.490Z,101645.22
2022-12-04T00:06:03.610Z,101642.59
2022-12-04T00:08:06.932Z,101644.38
2022-12-04T00:10:09.946Z,101648.75
2022-12-04T00:12:11.762Z,101657.50
2022-12-04T00:14:14.902Z,101660.13
2022-12-04T00:16:18.806Z,101664.50
2022-12-04T00:18:20.538Z,101656.63
2022-12-04T00:20:22.204Z,101655.75
2022-12-04T00:22:23.778Z,101659.25
2022-12-04T00:24:25.591Z,101647.88
2022-12-04T00:26:30.281Z,101657.47
2022-12-04T00:28:32.627Z,101647.88
2022-12-04T00:30:35.762Z,101646.13
2022-12-04T00:32:37.331Z,101636.50
2022-12-04T00:34:38.914Z,101641.75
2022-12-04T00:36:40.915Z,101648.75
2022-12-04T00:38:43.546Z,101643.50
2022-12-04T00:40:49.625Z,101642.63
2022-12-04T00:42:51.793Z,101640.00
2022-12-04T00:44:53.405Z,101647.00
2022-12-04T00:46:56.304Z,101642.63
2022-12-04T00:48:58.048Z,101644.38
2022-12-04T00:51:02.316Z,101640.94
2022-12-04T00:53:04.007Z,101641.78
2022-12-04T00:55:06.852Z,101640.94
2022-12-04T00:57:08.409Z,101640.00
2022-12-04T00:59:10.485Z,101642.69
2022-12-04T01:01:14.230Z,101641.81
2022-12-04T01:03:17.379Z,101642.69
2022-12-04T01:05:19.171Z,101640.91
2022-12-04T01:07:20.880Z,101637.44
2022-12-04T01:09:22.861Z,101637.38
2022-12-04T01:11:26.442Z,101639.16
2022-12-04T01:13:27.995Z,101644.38
2022-12-04T01:15:29.547Z,101643.50
2022-12-04T01:17:31.146Z,101645.25
2022-12-04T01:19:34.101Z,101649.63
2022-12-04T01:21:37.091Z,101640.00
2022-12-04T01:23:38.692Z,101645.25
2022-12-04T01:25:40.417Z,101641.75
2022-12-04T01:27:42.012Z,101635.63
2022-12-04T01:29:43.535Z,101646.13
2022-12-04T01:31:45.250Z,101640.94
2022-12-04T01:33:48.154Z,101644.38
2022-12-04T01:35:53.982Z,101634.78
2022-12-04T01:37:55.531Z,101634.75
2022-12-04T01:39:57.519Z,101627.78
2022-12-04T01:41:59.355Z,101624.28
2022-12-04T01:44:13.101Z,101633.91
2022-12-04T01:46:14.728Z,101622.53
2022-12-04T01:48:24.543Z,101625.13
2022-12-04T01:50:26.176Z,101618.16
2022-12-04T01:52:29.129Z,101615.53
2022-12-04T01:54:34.215Z,101619.91
2022-12-04T01:56:41.570Z,101630.38
2022-12-04T01:58:47.831Z,101618.16
2022-12-04T02:00:58.217Z,101610.28
2022-12-04T02:03:00.568Z,101618.16
2022-12-04T02:05:04.029Z,101624.25
2022-12-04T02:07:05.680Z,101618.13
2022-12-04T02:09:08.821Z,101621.63
2022-12-04T02:11:26.778Z,101613.75
2022-12-04T02:13:34.968Z,101605.91
2022-12-04T02:15:39.092Z,101607.69
2022-12-04T02:17:51.381Z,101608.56
2022-12-04T02:20:16.548Z,101608.56
2022-12-04T02:22:31.357Z,101612.91
2022-12-04T02:24:49.968Z,101607.66
2022-12-04T02:26:57.441Z,101601.56
2022-12-04T02:29:06.469Z,101606.78
2022-12-04T02:31:16.993Z,101601.56
2022-12-04T02:33:22.266Z,101598.94
2022-12-04T02:35:30.397Z,101602.44
2022-12-04T02:37:35.186Z,101598.94
2022-12-04T02:39:41.387Z,101605.06
2022-12-04T02:41:47.972Z,101589.34
2022-12-04T02:43:52.168Z,101589.34
2022-12-04T02:46:00.259Z,101593.69
2022-12-04T02:48:04.397Z,101583.22
2022-12-04T02:50:10.123Z,101590.22
2022-12-04T02:52:16.060Z,101586.72
2022-12-04T02:54:24.884Z,101572.72
2022-12-04T02:56:29.987Z,101564.88
2022-12-04T02:58:37.832Z,101555.25
2022-12-04T03:00:41.970Z,101564.00
2022-12-04T03:02:48.468Z,101568.34
2022-12-04T03:04:54.412Z,101574.47
2022-12-04T03:06:59.364Z,101573.59
2022-12-04T03:09:05.877Z,101575.31
2022-12-04T03:11:07.861Z,101569.22
2022-12-04T03:13:13.551Z,101574.44
2022-12-04T03:15:21.955Z,101577.06
2022-12-04T03:17:29.531Z,101577.06
2022-12-04T03:19:39.279Z,101573.56
2022-12-04T03:21:46.202Z,101577.06
2022-12-04T03:23:51.792Z,101564.84
2022-12-04T03:25:58.613Z,101568.34
2022-12-04T03:28:03.557Z,101559.63
2022-12-04T03:30:07.655Z,101570.09
2022-12-04T03:32:13.128Z,101575.34
2022-12-04T03:34:24.014Z,101571.84
2022-12-04T03:36:31.301Z,101560.50
2022-12-04T03:38:38.085Z,101565.75
2022-12-04T03:40:44.255Z,101577.97
2022-12-04T03:42:48.660Z,101574.47
2022-12-04T03:44:58.065Z,101577.97
2022-12-04T03:47:04.320Z,101566.59
2022-12-04T03:49:17.055Z,101570.94
2022-12-04T03:51:23.712Z,101567.47
2022-12-04T03:53:33.777Z,101569.22
2022-12-04T03:55:41.717Z,101564.88
2022-12-04T03:57:46.695Z,101564.88
2022-12-04T03:59:56.154Z,101570.13
2022-12-04T04:02:01.954Z,101558.75
2022-12-04T04:04:07.040Z,101564.00
2022-12-04T04:06:14.017Z,101567.50
2022-12-04T04:08:19.651Z,101571.00
2022-12-04T04:10:26.502Z,101562.25
2022-12-04T04:12:34.279Z,101557.88
2022-12-04T04:14:41.454Z,101560.50
2022-12-04T04:16:47.728Z,101570.09
2022-12-04T04:18:52.327Z,101569.22
2022-12-04T04:20:59.584Z,101570.97
2022-12-04T04:23:05.499Z,101559.63
2022-12-04T04:25:10.552Z,101564.00
2022-12-04T04:27:13.938Z,101566.63
2022-12-04T04:29:15.691Z,101555.25
2022-12-04T04:31:27.235Z,101558.75
2022-12-04T04:33:30.551Z,101557.88
2022-12-04T04:35:41.354Z,101543.03
2022-12-04T04:37:52.860Z,101550.03
2022-12-04T04:40:01.402Z,101544.78
2022-12-04T04:42:11.054Z,101550.03
2022-12-04T04:44:19.928Z,101560.50
2022-12-04T04:46:24.985Z,101568.38
2022-12-04T04:48:31.405Z,101562.25
2022-12-04T04:50:35.001Z,101558.75
2022-12-04T04:52:38.395Z,101560.50
2022-12-04T04:54:40.648Z,101558.75
2022-12-04T04:56:44.349Z,101549.13
2022-12-04T04:58:45.890Z,101561.38
2022-12-04T05:00:56.675Z,101555.25
2022-12-04T05:02:58.437Z,101555.25
2022-12-04T05:05:00.095Z,101557.03
2022-12-04T05:07:01.709Z,101554.38
2022-12-04T05:09:04.938Z,101560.50
2022-12-04T05:11:10.669Z,101553.50
2022-12-04T05:13:12.719Z,101557.88
2022-12-04T05:15:14.392Z,101563.13
2022-12-04T05:17:17.710Z,101562.25
2022-12-04T05:19:19.545Z,101558.75
2022-12-04T05:21:21.013Z,101566.63
2022-12-04T05:23:23.223Z,101569.25
2022-12-04T05:25:25.488Z,101568.38
2022-12-04T05:27:28.721Z,101562.25
2022-12-04T05:29:35.580Z,101560.50
2022-12-04T05:31:37.570Z,101555.25
2022-12-04T05:33:40.625Z,101547.41
2022-12-04T05:35:42.175Z,101554.38
2022-12-04T05:37:43.762Z,101557.00
2022-12-04T05:39:45.823Z,101560.50
2022-12-04T05:41:47.583Z,101557.88
2022-12-04T05:43:49.413Z,101572.72
2022-12-04T05:45:50.902Z,101570.13
2022-12-04T05:47:52.748Z,101565.75
2022-12-04T05:49:56.113Z,101567.50
2022-12-04T05:51:58.202Z,101563.13
2022-12-04T05:54:00.080Z,101566.63
2022-12-04T05:56:02.645Z,101563.13
2022-12-04T05:58:04.504Z,101555.25
2022-12-04T06:00:06.559Z,101544.78
2022-12-04T06:02:08.563Z,101541.28
2022-12-04T06:04:10.952Z,101550.88
2022-12-04T06:06:21.013Z,101548.28
2022-12-04T06:08:23.239Z,101553.50
2022-12-04T06:10:24.951Z,101550.91
2022-12-04T06:12:26.857Z,101548.28
2022-12-04T06:14:28.894Z,101554.38
2022-12-04T06:16:33.168Z,101541.28
2022-12-04T06:18:34.858Z,101544.75
2022-12-04T06:20:38.183Z,101555.25
2022-12-04T06:22:41.226Z,101556.13
2022-12-04T06:24:42.750Z,101546.50
2022-12-04T06:27:11.238Z,101539.50
2022-12-04T06:29:06.532Z,101542.94
2022-12-04T06:31:10.590Z,101538.59
2022-12-04T06:33:12.251Z,101546.47
2022-12-04T06:35:13.877Z,101535.09
2022-12-04T06:37:15.457Z,101545.59
2022-12-04T06:39:19.233Z,101537.75
2022-12-04T06:41:22.094Z,101546.50
2022-12-04T06:43:24.200Z,101547.38
2022-12-04T06:45:25.979Z,101551.75
2022-12-04T06:47:27.347Z,101551.75
2022-12-04T06:49:28.878Z,101556.13
2022-12-04T06:51:32.608Z,101551.75
2022-12-04T06:53:35.003Z,101551.75
2022-12-04T06:55:37.875Z,101542.13
2022-12-04T06:57:39.673Z,101541.28
2022-12-04T06:59:41.265Z,101545.66
2022-12-04T07:01:42.905Z,101549.13
2022-12-04T07:03:51.027Z,101543.00
2022-12-04T07:05:53.259Z,101542.09
2022-12-04T07:07:54.874Z,101546.44
2022-12-04T07:09:56.806Z,101546.47
2022-12-04T07:11:59.912Z,101543.84
2022-12-04T07:14:02.207Z,101540.34
2022-12-04T07:16:06.446Z,101545.63
2022-12-04T07:18:08.090Z,101543.00
2022-12-04T07:20:10.525Z,101541.25
2022-12-04T07:22:12.111Z,101536.00
2022-12-04T07:24:15.568Z,101535.13
2022-12-04T07:26:17.128Z,101532.50
2022-12-04T07:28:20.085Z,101542.97
2022-12-04T07:30:21.584Z,101541.25
2022-12-04T07:32:23.162Z,101540.38
2022-12-04T07:34:24.835Z,101536.00
2022-12-04T07:36:27.236Z,101545.59
2022-12-04T07:38:29.801Z,101549.06
2022-12-04T07:40:31.581Z,101543.84
2022-12-04T07:42:32.930Z,101549.09
2022-12-04T07:44:35.863Z,101549.03
2022-12-04T07:46:37.513Z,101553.41
2022-12-04T07:48:39.148Z,101552.53
2022-12-04T07:50:40.784Z,101535.06
2022-12-04T07:52:42.336Z,101550.75
2022-12-04T07:54:43.878Z,101549.94
2022-12-04T07:56:45.441Z,101550.81
2022-12-04T07:58:47.176Z,101563.06
2022-12-04T08:00:50.190Z,101558.69
2022-12-04T08:02:51.860Z,101565.66
2022-12-04T08:04:53.511Z,101572.66
2022-12-04T08:06:55.058Z,101566.56
2022-12-04T08:08:56.798Z,101570.09
2022-12-04T08:10:58.598Z,101567.47
2022-12-04T08:12:59.937Z,101568.31
2022-12-04T08:15:01.883Z,101569.19
2022-12-04T08:17:04.868Z,101569.19
2022-12-04T08:19:06.632Z,101569.19
2022-12-04T08:21:10.696Z,101552.53
2022-12-04T08:23:12.260Z,101564.78
2022-12-04T08:25:14.062Z,101510.63
2022-12-04T08:27:15.610Z,101553.44
2022-12-04T08:29:17.250Z,101556.88
2022-12-04T08:31:21.127Z,101563.25
2022-12-04T08:33:24.071Z,101560.00
2022-12-04T08:35:25.636Z,101566.47
2022-12-04T08:37:27.159Z,101564.25
2022-12-04T08:39:28.736Z,101564.06
2022-12-04T08:41:30.308Z,101568.00
2022-12-04T08:43:32.018Z,101561.81
2022-12-04T08:45:33.544Z,101567.50
2022-12-04T08:47:35.127Z,101567.94
2022-12-04T08:49:38.043Z,101568.13
2022-12-04T08:51:39.694Z,101563.28
2022-12-04T08:53:41.330Z,101560.69
2022-12-04T08:55:42.891Z,101559.13
2022-12-04T08:57:44.415Z,101556.53
2022-12-04T08:59:46.125Z,101550.50
2022-12-04T09:01:50.143Z,101556.72
2022-12-04T09:03:51.827Z,101562.03
2022-12-04T09:05:58.977Z,101559.38
2022-12-04T09:08:00.666Z,101568.13
2022-12-04T09:10:02.278Z,101563.78
2022-12-04T09:12:04.160Z,101577.75
2022-12-04T09:14:05.721Z,101575.16
2022-12-04T09:16:09.650Z,101582.09
2022-12-04T09:18:11.457Z,101574.22
2022-12-04T09:20:12.929Z,101587.28
2022-12-04T09:22:15.901Z,101586.38
2022-12-04T09:24:17.513Z,101574.94
2022-12-04T09:26:21.987Z,101576.81
2022-12-04T09:28:23.523Z,101583.00
2022-12-04T09:30:28.143Z,101574.19
2022-12-04T09:32:29.716Z,101580.38
2022-12-04T09:34:31.259Z,101576.88
2022-12-04T09:36:32.914Z,101570.75
2022-12-04T09:38:35.940Z,101573.41
2022-12-04T09:40:46.870Z,101563.72
2022-12-04T09:42:56.153Z,101564.59
2022-12-04T09:45:02.745Z,101561.13
2022-12-04T09:47:10.209Z,101548.06
2022-12-04T09:49:17.582Z,101546.34
2022-12-04T09:51:22.930Z,101555.78
2022-12-04T09:53:28.729Z,101561.91
2022-12-04T09:55:36.576Z,101565.38
2022-12-04T09:57:44.569Z,101544.34
2022-12-04T09:59:50.221Z,101553.22
2022-12-04T10:02:02.409Z,101534.81
2022-12-04T10:04:12.384Z,101489.47
2022-12-04T10:06:18.236Z,101533.97
2022-12-04T10:08:22.972Z,101539.19
2022-12-04T10:10:36.280Z,101520.00
2022-12-04T10:12:45.003Z,101533.91
2022-12-04T10:15:01.733Z,101525.16
2022-12-04T10:17:32.451Z,101530.41
2022-12-04T10:19:43.270Z,101525.97
2022-12-04T10:21:54.135Z,101524.22
2022-12-04T10:24:16.563Z,101528.59
2022-12-04T10:26:24.166Z,101527.69
2022-12-04T10:28:31.678Z,101521.53
2022-12-04T10:30:36.799Z,101498.78
2022-12-04T10:32:38.810Z,101503.16
2022-12-04T10:34:45.505Z,101509.28
2022-12-04T10:36:56.307Z,101512.72
2022-12-04T10:39:42.338Z,101504.81
2022-12-04T10:42:00.305Z,101506.66
2022-12-04T10:44:02.188Z,101495.41
2022-12-04T10:46:03.777Z,101508.44
2022-12-04T10:48:06.261Z,101498.72
2022-12-04T10:50:16.120Z,101504.00
2022-12-04T10:52:17.759Z,101485.66
2022-12-04T10:54:22.284Z,101484.75
2022-12-04T10:56:26.134Z,101501.50
2022-12-04T10:58:29.143Z,101485.81
2022-12-04T11:00:32.616Z,101502.31
2022-12-04T11:02:35.124Z,101489.19
2022-12-04T11:04:37.181Z,101499.78
2022-12-04T11:06:39.055Z,101491.97
2022-12-04T11:08:41.964Z,101490.16
2022-12-04T11:10:44.358Z,101494.38
2022-12-04T11:12:53.877Z,101491.75
2022-12-04T11:15:13.302Z,101489.16
2022-12-04T11:17:17.387Z,101488.22
2022-12-04T11:19:22.136Z,101492.66
2022-12-04T11:21:27.255Z,101482.31
2022-12-04T11:23:32.351Z,101475.38
2022-12-04T11:25:44.965Z,101474.47
2022-12-04T11:27:48.926Z,101479.69
2022-12-04T11:29:51.414Z,101480.53
2022-12-04T11:31:55.640Z,101486.59
2022-12-04T11:34:00.031Z,101489.22
2022-12-04T11:36:06.044Z,101483.03
2022-12-04T11:38:14.258Z,101476.94
2022-12-04T11:40:17.589Z,101477.84
2022-12-04T11:42:24.150Z,101482.19
2022-12-04T11:44:27.507Z,101488.25
2022-12-04T11:46:31.299Z,101485.53
2022-12-04T11:48:42.958Z,101467.09
2022-12-04T11:50:53.297Z,101465.38
2022-12-04T11:53:06.244Z,101461.88
2022-12-04T11:55:17.503Z,101447.97
2022-12-04T11:57:30.269Z,101455.75
2022-12-04T11:59:59.380Z,101435.69
2022-12-04T12:02:29.495Z,101425.25
2022-12-04T12:05:01.024Z,101455.78
2022-12-04T12:07:16.285Z,101456.59
2022-12-04T12:09:25.807Z,101423.47
2022-12-04T12:11:33.169Z,101458.28
2022-12-04T12:13:47.660Z,101403.41
2022-12-04T12:15:51.990Z,101448.63
2022-12-04T12:18:07.884Z,101449.50
2022-12-04T12:20:23.998Z,101452.19
2022-12-04T12:22:43.273Z,101402.44
2022-12-04T12:24:55.392Z,101423.34
2022-12-04T12:27:16.542Z,101425.88
2022-12-04T12:29:33.865Z,101414.47
2022-12-04T12:31:54.413Z,101405.84
2022-12-04T12:34:00.258Z,101446.06
2022-12-04T12:36:08.187Z,101448.75
2022-12-04T12:38:14.639Z,101450.50
2022-12-04T12:40:26.769Z,101454.09
2022-12-04T12:42:34.390Z,101458.41
2022-12-04T12:44:43.555Z,101443.50
2022-12-04T12:46:50.565Z,101448.75
2022-12-04T12:48:59.708Z,101434.72
2022-12-04T12:51:29.690Z,101416.47
2022-12-04T12:53:37.163Z,101446.13
2022-12-04T12:55:42.449Z,101442.63
2022-12-04T12:57:49.679Z,101441.63
2022-12-04T12:59:55.637Z,101438.06
2022-12-04T13:02:01.640Z,101438.94
2022-12-04T13:04:09.543Z,101332.88
2022-12-04T13:06:16.835Z,101453.13
2022-12-04T13:08:24.504Z,101449.63
2022-12-04T13:10:31.866Z,101448.75
2022-12-04T13:12:43.936Z,101447.91
2022-12-04T13:14:49.073Z,101447.03
2022-12-04T13:16:54.032Z,101439.13
2022-12-04T13:19:05.248Z,101436.56
2022-12-04T13:21:10.860Z,101447.88
2022-12-04T13:23:26.733Z,101415.53
2022-12-04T13:25:40.178Z,101437.38
2022-12-04T13:27:52.909Z,101435.53
2022-12-04T13:30:03.496Z,101437.25
2022-12-04T13:32:27.528Z,101423.22
2022-12-04T13:34:50.985Z,101401.34
2022-12-04T13:37:12.190Z,101416.94
2022-12-04T13:39:48.628Z,101415.25
2022-12-04T13:41:57.652Z,101405.59
2022-12-04T13:44:04.141Z,101403.00
2022-12-04T13:46:25.562Z,101403.06
2022-12-04T13:48:30.810Z,101385.63
2022-12-04T13:50:33.977Z,101396.88
2022-12-04T13:52:40.997Z,101386.31
2022-12-04T13:54:56.254Z,101393.22
2022-12-04T13:57:17.863Z,101394.97
2022-12-04T13:59:34.302Z,101393.41
2022-12-04T14:01:39.256Z,101384.72
2022-12-04T14:03:47.165Z,101377.72
2022-12-04T14:05:48.998Z,101386.53
2022-12-04T14:08:00.808Z,101398.72
2022-12-04T14:10:22.906Z,101396.97
2022-12-04T14:12:28.408Z,101380.44
2022-12-04T14:14:37.302Z,101403.00
2022-12-04T14:16:41.039Z,101405.53
2022-12-04T14:18:47.694Z,101396.84
2022-12-04T14:20:58.541Z,101396.75
2022-12-04T14:23:23.645Z,101404.63
2022-12-04T14:25:35.742Z,101405.38
2022-12-04T14:27:44.018Z,101396.56
2022-12-04T14:29:49.505Z,101401.06
2022-12-04T14:31:53.412Z,101396.81
2022-12-04T14:33:58.313Z,101398.63
2022-12-04T14:36:03.605Z,101397.72
2022-12-04T14:38:07.166Z,101390.84
2022-12-04T14:40:19.495Z,101369.06
2022-12-04T14:42:26.024Z,101396.06
2022-12-04T14:44:29.628Z,101391.66
2022-12-04T14:46:39.574Z,101398.88
2022-12-04T14:48:53.066Z,101403.94
2022-12-04T14:51:04.709Z,101400.31
2022-12-04T14:53:16.973Z,101392.81
2022-12-04T14:55:28.087Z,101387.56
2022-12-04T14:57:44.772Z,101384.13
2022-12-04T14:59:48.430Z,101385.84
2022-12-04T15:01:53.604Z,101389.41
2022-12-04T15:03:57.688Z,101393.34
2022-12-04T15:06:03.984Z,101377.59
2022-12-04T15:08:06.296Z,101393.38
2022-12-04T15:10:20.428Z,101379.47
2022-12-04T15:12:23.803Z,101379.47
2022-12-04T15:14:26.812Z,101378.56
2022-12-04T15:16:28.581Z,101388.19
2022-12-04T15:18:30.212Z,101390.81
2022-12-04T15:20:43.292Z,101386.50
2022-12-04T15:22:45.610Z,101397.97
2022-12-04T15:24:47.286Z,101393.56
2022-12-04T15:26:50.023Z,101399.69
2022-12-04T15:28:55.689Z,101403.97
2022-12-04T15:31:01.934Z,101407.38
2022-12-04T15:33:04.293Z,101401.34
2022-12-04T15:35:09.113Z,101398.69
2022-12-04T15:37:23.132Z,101402.25
2022-12-04T15:39:27.739Z,101406.66
2022-12-04T15:41:32.291Z,101405.75
2022-12-04T15:43:40.151Z,101398.66
2022-12-04T15:45:41.837Z,101404.78
2022-12-04T15:47:52.784Z,101403.97
2022-12-04T15:49:54.913Z,101383.06
2022-12-04T15:52:05.967Z,101409.31
2022-12-04T15:54:13.705Z,101402.31
2022-12-04T15:56:17.960Z,101397.81
2022-12-04T15:58:22.164Z,101403.13
2022-12-04T16:00:27.331Z,101400.41
2022-12-04T16:02:31.421Z,101398.59
2022-12-04T16:04:34.934Z,101401.28
2022-12-04T16:06:46.455Z,101400.41
2022-12-04T16:08:50.750Z,101387.19
2022-12-04T16:10:58.091Z,101393.38
2022-12-04T16:13:01.401Z,101405.56
2022-12-04T16:15:03.107Z,101412.53
2022-12-04T16:17:06.525Z,101405.59
2022-12-04T16:19:13.652Z,101406.34
2022-12-04T16:21:18.205Z,101395.16
2022-12-04T16:23:19.801Z,101399.41
2022-12-04T16:25:21.392Z,101400.19
2022-12-04T16:27:24.302Z,101400.13
2022-12-04T16:29:26.092Z,101407.94
2022-12-04T16:31:27.540Z,101404.31
2022-12-04T16:33:29.372Z,101391.38
2022-12-04T16:35:30.779Z,101388.03
2022-12-04T16:37:33.788Z,101393.47
2022-12-04T16:39:41.078Z,101388.19
2022-12-04T16:41:43.026Z,101389.09
2022-12-04T16:43:44.783Z,101396.13
2022-12-04T16:45:48.914Z,101388.25
2022-12-04T16:47:50.584Z,101393.50
2022-12-04T16:49:52.470Z,101391.63
2022-12-04T16:51:54.092Z,101396.84
2022-12-04T16:53:57.077Z,101389.72
2022-12-04T16:55:58.641Z,101393.19
2022-12-04T16:58:00.244Z,101398.47
2022-12-04T17:00:02.057Z,101395.94
2022-12-04T17:02:06.951Z,101395.03
2022-12-04T17:04:09.990Z,101395.84
2022-12-04T17:06:11.748Z,101395.91
2022-12-04T17:08:13.627Z,101392.28
2022-12-04T17:10:23.293Z,101394.09
2022-12-04T17:12:25.523Z,101389.72
2022-12-04T17:14:27.152Z,101395.91
2022-12-04T17:16:28.800Z,101393.22
2022-12-04T17:18:30.617Z,101390.66
2022-12-04T17:20:32.342Z,101386.31
2022-12-04T17:22:34.139Z,101389.72
2022-12-04T17:24:35.902Z,101388.88
2022-12-04T17:26:38.845Z,101388.03
2022-12-04T17:28:41.342Z,101381.81
2022-12-04T17:30:45.385Z,101386.06
2022-12-04T17:32:47.025Z,101382.63
2022-12-04T17:34:48.723Z,101379.19
2022-12-04T17:36:50.353Z,101387.03
2022-12-04T17:38:53.873Z,101388.72
2022-12-04T17:40:59.659Z,101390.47
2022-12-04T17:43:02.765Z,101380.81
2022-12-04T17:45:04.940Z,101382.44
2022-12-04T17:47:06.592Z,101387.72
2022-12-04T17:49:08.321Z,101392.00
2022-12-04T17:51:11.685Z,101385.97
2022-12-04T17:53:13.317Z,101379.97
2022-12-04T17:55:15.344Z,101373.84
2022-12-04T17:57:17.503Z,101377.47
2022-12-04T17:59:20.842Z,101377.50
2022-12-04T18:01:24.537Z,101378.28
2022-12-04T18:03:26.252Z,101379.22
2022-12-04T18:05:29.035Z,101371.41
2022-12-04T18:07:30.834Z,101370.44
2022-12-04T18:09:32.576Z,101372.19
2022-12-04T18:11:36.385Z,101369.50
2022-12-04T18:13:38.104Z,101381.00
2022-12-04T18:15:41.013Z,101373.06
2022-12-04T18:17:44.682Z,101362.50
2022-12-04T18:19:46.402Z,101365.16
2022-12-04T18:21:51.010Z,101365.94
2022-12-04T18:23:55.581Z,101372.97
2022-12-04T18:25:58.873Z,101373.88
2022-12-04T18:28:00.553Z,101384.34
2022-12-04T18:30:02.164Z,101374.78
2022-12-04T18:32:05.458Z,101373.84
2022-12-04T18:34:08.147Z,101354.72
2022-12-04T18:36:12.763Z,101368.66
2022-12-04T18:38:14.637Z,101379.09
2022-12-04T18:40:16.568Z,101375.47
2022-12-04T18:42:20.611Z,101381.66
2022-12-04T18:44:22.785Z,101366.84
2022-12-04T18:46:25.155Z,101377.50
2022-12-04T18:48:28.426Z,101373.03
2022-12-04T18:50:30.146Z,101382.66
2022-12-04T18:52:35.154Z,101375.56
2022-12-04T18:54:36.909Z,101378.13
2022-12-04T18:56:38.660Z,101387.78
2022-12-04T18:58:41.405Z,101388.66
2022-12-04T19:00:46.179Z,101373.91
2022-12-04T19:02:48.800Z,101393.16
2022-12-04T19:04:52.154Z,101386.97
2022-12-04T19:06:55.699Z,101346.81
2022-12-04T19:08:59.462Z,101385.31
2022-12-04T19:11:06.322Z,101374.00
2022-12-04T19:13:07.993Z,101395.03
2022-12-04T19:15:10.818Z,101384.47
2022-12-04T19:17:12.452Z,101385.41
2022-12-04T19:19:14.743Z,101388.94
2022-12-04T19:21:18.240Z,101373.22
2022-12-04T19:23:19.838Z,101381.84
2022-12-04T19:25:21.540Z,101386.22
2022-12-04T19:27:23.175Z,101384.50
2022-12-04T19:29:24.808Z,101385.25
2022-12-04T19:31:27.960Z,101394.81
2022-12-04T19:33:29.620Z,101393.94
2022-12-04T19:35:31.466Z,101380.88
2022-12-04T19:37:39.630Z,101386.03
2022-12-04T19:39:43.625Z,101399.09
2022-12-04T19:41:45.382Z,101388.50
2022-12-04T19:43:47.650Z,101397.25
2022-12-04T19:45:49.364Z,101394.63
2022-12-04T19:47:50.803Z,101398.09
2022-12-04T19:49:52.356Z,101392.78
2022-12-04T19:51:53.958Z,101392.78
2022-12-04T19:53:57.028Z,101386.69
2022-12-04T19:56:02.466Z,101393.63
2022-12-04T19:58:06.348Z,101379.69
2022-12-04T20:00:09.173Z,101393.59
2022-12-04T20:02:11.502Z,101387.41
2022-12-04T20:04:13.193Z,101389.19
2022-12-04T20:06:16.466Z,101388.25
2022-12-04T20:08:18.090Z,101380.44
2022-12-04T20:10:21.177Z,101381.38
2022-12-04T20:12:22.840Z,101366.47
2022-12-04T20:14:24.458Z,101384.78
2022-12-04T20:16:28.494Z,101380.47
2022-12-04T20:18:30.401Z,101373.47
2022-12-04T20:20:31.826Z,101375.16
2022-12-04T20:22:33.507Z,101376.94
2022-12-04T20:24:35.239Z,101374.28
2022-12-04T20:26:38.602Z,101361.09
2022-12-04T20:28:41.433Z,101362.94
2022-12-04T20:30:43.301Z,101351.56
2022-12-04T20:32:45.003Z,101355.94
2022-12-04T20:34:46.866Z,101357.69
2022-12-04T20:36:49.374Z,101362.09
2022-12-04T20:38:52.756Z,101366.41
2022-12-04T20:40:54.384Z,101364.66
2022-12-04T20:42:57.778Z,101361.84
2022-12-04T20:44:59.623Z,101335.78
2022-12-04T20:47:01.010Z,101371.53
2022-12-04T20:49:05.496Z,101369.75
2022-12-04T20:51:07.387Z,101372.28
2022-12-04T20:53:09.025Z,101367.78
2022-12-04T20:55:10.706Z,101365.19
2022-12-04T20:57:12.393Z,101360.97
2022-12-04T20:59:17.787Z,101363.53
2022-12-04T21:01:19.844Z,101364.47
2022-12-04T21:03:21.478Z,101363.66
2022-12-04T21:05:23.223Z,101359.44
2022-12-04T21:07:24.588Z,101375.09
2022-12-04T21:09:26.149Z,101357.56
2022-12-04T21:11:30.372Z,101363.72
2022-12-04T21:13:31.931Z,101367.88
2022-12-04T21:15:35.617Z,101366.19
2022-12-04T21:17:37.291Z,101371.44
2022-12-04T21:19:39.040Z,101350.56
2022-12-04T21:21:40.854Z,101357.56
2022-12-04T21:23:42.886Z,101364.59
2022-12-04T21:25:44.710Z,101352.44
2022-12-04T21:27:46.065Z,101359.50
2022-12-04T21:29:48.195Z,101348.06
2022-12-04T21:31:51.279Z,101357.66
2022-12-04T21:33:53.084Z,101349.81
2022-12-04T21:35:54.531Z,101353.28
2022-12-04T21:37:56.121Z,101350.69
2022-12-04T21:39:59.287Z,101354.13
2022-12-04T21:42:01.424Z,101361.28
2022-12-04T21:44:04.047Z,101356.06
2022-12-04T21:46:09.683Z,101347.28
2022-12-04T21:48:12.804Z,101355.94
2022-12-04T21:50:14.360Z,101350.66
2022-12-04T21:52:16.799Z,101351.59
2022-12-04T21:54:18.519Z,101346.34
2022-12-04T21:56:20.275Z,101348.09
2022-12-04T21:58:22.634Z,101349.91
2022-12-04T22:00:24.414Z,101352.44
2022-12-04T22:02:25.848Z,101348.06
2022-12-04T22:04:28.817Z,101343.63
2022-12-04T22:06:30.917Z,101331.44
2022-12-04T22:08:35.064Z,101338.38
2022-12-04T22:10:40.275Z,101341.81
2022-12-04T22:12:49.621Z,101340.91
2022-12-04T22:14:51.970Z,101315.75
2022-12-04T22:16:53.581Z,101340.13
2022-12-04T22:18:55.995Z,101334.81
2022-12-04T22:20:59.525Z,101333.16
2022-12-04T22:23:01.173Z,101336.75
2022-12-04T22:25:02.897Z,101343.72
2022-12-04T22:27:04.424Z,101334.19
2022-12-04T22:29:26.991Z,101344.63
2022-12-04T22:31:29.678Z,101331.63
2022-12-04T22:33:31.776Z,101335.09
2022-12-04T22:35:34.130Z,101331.69
2022-12-04T22:37:41.224Z,101329.97
2022-12-04T22:39:45.711Z,101334.28
2022-12-04T22:41:47.343Z,101328.16
2022-12-04T22:43:48.992Z,101335.94
2022-12-04T22:45:50.538Z,101333.31
2022-12-04T22:47:52.264Z,101334.19
2022-12-04T22:49:54.135Z,101330.69
2022-12-04T22:51:55.793Z,101323.53
2022-12-04T22:53:58.811Z,101327.88
2022-12-04T22:56:06.196Z,101323.47
2022-12-04T22:58:07.739Z,101316.50
2022-12-04T23:00:10.081Z,101325.28
2022-12-04T23:02:12.279Z,101313.84
2022-12-04T23:04:13.919Z,101324.53
2022-12-04T23:06:17.365Z,101319.16
2022-12-04T23:08:19.101Z,101316.53
2022-12-04T23:10:21.957Z,101320.84
2022-12-04T23:12:23.532Z,101325.25
2022-12-04T23:14:25.326Z,101314.69
2022-12-04T23:16:27.362Z,101321.63
2022-12-04T23:18:29.416Z,101310.25
2022-12-04T23:20:31.246Z,101309.22
2022-12-04T23:22:32.796Z,101314.50
2022-12-04T23:24:34.317Z,101318.94
2022-12-04T23:26:40.163Z,101315.38
2022-12-04T23:28:42.140Z,101321.53
2022-12-04T23:30:47.320Z,101318.81
2022-12-04T23:32:48.925Z,101311.00
2022-12-04T23:34:50.517Z,101327.69
2022-12-04T23:36:52.078Z,101317.25
2022-12-04T23:38:53.855Z,101317.19
2022-12-04T23:41:00.067Z,101321.53
2022-12-04T23:43:03.054Z,101326.06
2022-12-04T23:45:05.115Z,101311.97
2022-12-04T23:47:06.796Z,101316.41